Terminal Aerodrome Forecast
Issued by NWS

Home | Current Version | Previous Version | Text Only | Print | Product List | Glossary On
Versions: 1 2 3 4 5 6 7 8 9 10 11 12 13 14 15
000
FTUS45 KSLC 230533
TAFEVW
TAF
KEVW 230533Z 2306/2406 32007KT P6SM SKC
     FM230800 09007KT P6SM SKC
     FM231700 28007KT P6SM SKC
     FM231900 29011G16KT P6SM SKC=

USA.gov is the U.S. government's official web portal to all federal, state and local government web resources and services.